createdAt,value
2019-02-12T00:02:04.032Z,95.30
2019-02-12T00:04:35.358Z,95.30
2019-02-12T00:07:06.589Z,95.40
2019-02-12T00:09:37.321Z,95.20
2019-02-12T00:12:08.213Z,95.40
2019-02-12T00:14:38.779Z,95.20
2019-02-12T00:17:09.948Z,95.20
2019-02-12T00:19:42.791Z,95.40
2019-02-12T00:22:13.617Z,95.40
2019-02-12T00:24:44.279Z,95.30
2019-02-12T00:27:15.070Z,95.40
2019-02-12T00:29:45.682Z,95.40
2019-02-12T00:32:16.462Z,95.40
2019-02-12T00:34:48.066Z,95.50
2019-02-12T00:37:20.194Z,95.40
2019-02-12T00:39:51.369Z,95.50
2019-02-12T00:42:22.553Z,95.60
2019-02-12T00:44:53.279Z,95.70
2019-02-12T00:47:24.448Z,95.50
2019-02-12T00:49:55.084Z,95.60
2019-02-12T00:52:26.278Z,95.90
2019-02-12T00:54:57.240Z,95.70
2019-02-12T00:57:28.114Z,95.80
2019-02-12T00:59:58.931Z,95.70
2019-02-12T01:02:32.566Z,95.80
2019-02-12T01:05:04.456Z,95.70
2019-02-12T01:07:35.265Z,95.70
2019-02-12T01:10:07.608Z,95.90
2019-02-12T01:12:38.702Z,95.90
2019-02-12T01:15:11.653Z,95.80
2019-02-12T01:17:42.470Z,95.90
2019-02-12T01:20:13.919Z,96.00
2019-02-12T01:22:44.882Z,96.10
2019-02-12T01:25:15.887Z,96.10
2019-02-12T01:27:46.735Z,95.90
2019-02-12T01:30:17.977Z,95.90
2019-02-12T01:32:48.814Z,95.90
2019-02-12T01:35:19.540Z,95.90
2019-02-12T01:37:50.539Z,95.90
2019-02-12T01:40:21.333Z,96.00
2019-02-12T01:42:52.128Z,96.00
2019-02-12T01:45:23.375Z,95.90
2019-02-12T01:47:54.226Z,96.10
2019-02-12T01:50:24.771Z,96.00
2019-02-12T01:52:55.705Z,96.00
2019-02-12T01:55:26.455Z,96.10
2019-02-12T01:57:57.131Z,95.80
2019-02-12T02:00:28.347Z,96.00
2019-02-12T02:02:59.504Z,95.90
2019-02-12T02:05:30.638Z,95.90
2019-02-12T02:08:01.835Z,95.40
2019-02-12T02:10:32.596Z,95.60
2019-02-12T02:13:03.224Z,95.50
2019-02-12T02:15:34.285Z,95.70
2019-02-12T02:18:05.017Z,95.40
2019-02-12T02:20:35.629Z,95.70
2019-02-12T02:23:06.474Z,95.30
2019-02-12T02:25:37.254Z,95.30
2019-02-12T02:28:08.162Z,95.50
2019-02-12T02:30:39.191Z,95.30
2019-02-12T02:33:10.235Z,95.50
2019-02-12T02:35:40.788Z,95.50
2019-02-12T02:38:11.703Z,95.70
2019-02-12T02:40:42.395Z,95.60
2019-02-12T02:43:13.419Z,95.20
2019-02-12T02:45:44.307Z,95.60
2019-02-12T02:48:15.139Z,95.40
2019-02-12T02:50:45.786Z,95.40
2019-02-12T02:53:16.969Z,95.60
2019-02-12T02:55:47.571Z,95.30
2019-02-12T02:58:19.747Z,95.40
2019-02-12T03:00:50.264Z,95.30
2019-02-12T03:03:22.267Z,95.40
2019-02-12T03:05:53.207Z,95.30
2019-02-12T03:08:24.034Z,95.40
2019-02-12T03:10:54.855Z,95.60
2019-02-12T03:13:28.040Z,95.50
2019-02-12T03:16:00.115Z,95.70
2019-02-12T03:18:31.191Z,95.50
2019-02-12T03:21:03.037Z,95.80
2019-02-12T03:23:34.215Z,95.90
2019-02-12T03:26:04.891Z,95.40
2019-02-12T03:28:35.663Z,95.40
2019-02-12T03:31:06.335Z,95.50
2019-02-12T03:33:37.254Z,95.50
2019-02-12T03:36:08.030Z,95.50
2019-02-12T03:38:38.740Z,95.50
2019-02-12T03:41:09.383Z,95.80
2019-02-12T03:43:40.072Z,95.50
2019-02-12T03:46:10.867Z,95.40
2019-02-12T03:48:41.610Z,95.40
2019-02-12T03:51:12.506Z,95.50
2019-02-12T03:53:43.338Z,95.80
2019-02-12T03:56:15.335Z,95.50
2019-02-12T03:58:46.215Z,95.60
2019-02-12T04:01:16.838Z,95.50
2019-02-12T04:03:48.286Z,95.70
2019-02-12T04:06:18.954Z,95.50
2019-02-12T04:08:49.915Z,95.60
2019-02-12T04:11:21.056Z,95.40
2019-02-12T04:13:51.994Z,95.70
2019-02-12T04:16:22.711Z,95.60
2019-02-12T04:18:53.526Z,95.50
2019-02-12T04:21:24.349Z,95.40
2019-02-12T04:23:55.570Z,95.40
2019-02-12T04:26:26.732Z,95.40
2019-02-12T04:28:57.575Z,95.50
2019-02-12T04:31:28.781Z,95.60
2019-02-12T04:33:59.676Z,95.70
2019-02-12T04:36:30.214Z,95.50
2019-02-12T04:39:01.531Z,95.70
2019-02-12T04:41:34.158Z,95.50
2019-02-12T04:44:04.934Z,95.50
2019-02-12T04:46:35.749Z,95.70
2019-02-12T04:49:06.618Z,95.50
2019-02-12T04:51:37.802Z,95.40
2019-02-12T04:54:10.203Z,95.70
2019-02-12T04:56:41.365Z,95.40
2019-02-12T04:59:12.030Z,95.30
2019-02-12T05:01:44.569Z,95.20
2019-02-12T05:04:16.315Z,95.50
2019-02-12T05:06:47.882Z,95.30
2019-02-12T05:09:25.345Z,95.20
2019-02-12T05:12:01.233Z,95.20
2019-02-12T05:14:32.816Z,95.30
2019-02-12T05:17:03.540Z,95.10
2019-02-12T05:19:34.547Z,95.10
2019-02-12T05:22:06.173Z,95.10
2019-02-12T05:24:37.174Z,95.20
2019-02-12T05:27:08.404Z,95.10
2019-02-12T05:29:39.195Z,95.00
2019-02-12T05:32:09.970Z,95.10
2019-02-12T05:34:40.856Z,95.10
2019-02-12T05:37:14.691Z,95.20
2019-02-12T05:39:45.692Z,95.20
2019-02-12T05:42:16.528Z,95.40
2019-02-12T05:44:47.330Z,95.10
2019-02-12T05:47:18.376Z,95.10
2019-02-12T05:49:49.354Z,94.90
2019-02-12T05:52:20.439Z,95.10
2019-02-12T05:54:53.220Z,95.00
2019-02-12T05:57:24.283Z,95.10
2019-02-12T05:59:55.983Z,95.00
2019-02-12T06:02:26.826Z,95.00
2019-02-12T06:04:57.978Z,94.90
2019-02-12T06:07:28.951Z,94.90
2019-02-12T06:10:04.420Z,94.90
2019-02-12T06:12:42.228Z,95.10
2019-02-12T06:15:17.415Z,94.80
2019-02-12T06:17:48.259Z,94.90
2019-02-12T06:20:18.830Z,94.70
2019-02-12T06:22:49.762Z,94.70
2019-02-12T06:25:22.383Z,94.70
2019-02-12T06:27:53.710Z,94.50
2019-02-12T06:30:28.015Z,94.40
2019-02-12T06:33:07.190Z,94.50
2019-02-12T06:35:33.433Z,94.60
2019-02-12T06:38:07.126Z,94.30
2019-02-12T06:40:43.953Z,94.60
2019-02-12T06:43:14.463Z,94.30
2019-02-12T06:45:45.513Z,94.10
2019-02-12T06:48:16.664Z,94.00
2019-02-12T06:50:48.852Z,94.00
2019-02-12T06:53:25.300Z,93.90
2019-02-12T06:55:56.306Z,93.80
2019-02-12T06:58:31.044Z,93.90
2019-02-12T07:01:08.077Z,93.90
2019-02-12T07:04:14.318Z,93.70
2019-02-12T07:07:39.940Z,93.80
2019-02-12T07:10:29.298Z,93.70
2019-02-12T07:13:27.053Z,93.60
2019-02-12T07:16:25.475Z,93.70
2019-02-12T07:19:21.785Z,93.60
2019-02-12T07:22:36.963Z,93.40
2019-02-12T07:25:28.937Z,93.40
2019-02-12T07:28:45.079Z,93.30
2019-02-12T07:32:17.422Z,93.50
2019-02-12T07:35:28.942Z,93.50
2019-02-12T07:38:58.731Z,93.30
2019-02-12T07:42:28.601Z,93.30
2019-02-12T07:45:46.492Z,93.20
2019-02-12T07:48:49.816Z,93.40
2019-02-12T07:52:12.690Z,93.70
2019-02-12T07:55:22.225Z,93.20
2019-02-12T07:58:18.971Z,93.50
2019-02-12T08:01:08.675Z,93.10
2019-02-12T08:03:56.999Z,93.60
2019-02-12T08:06:51.923Z,93.00
2019-02-12T08:10:16.271Z,92.90
2019-02-12T08:13:35.803Z,93.00
2019-02-12T08:16:35.741Z,92.70
2019-02-12T08:19:40.764Z,92.50
2019-02-12T08:22:37.191Z,92.90
2019-02-12T08:25:59.714Z,92.80
2019-02-12T08:29:01.885Z,92.30
2019-02-12T08:31:47.091Z,92.70
2019-02-12T08:35:15.885Z,92.00
2019-02-12T08:38:34.154Z,92.10
2019-02-12T08:41:28.195Z,92.30
2019-02-12T08:44:30.660Z,92.40
2019-02-12T08:47:33.756Z,92.00
2019-02-12T08:50:36.569Z,92.20
2019-02-12T08:53:50.279Z,91.80
2019-02-12T08:57:10.098Z,91.70
2019-02-12T09:00:11.476Z,92.00
2019-02-12T09:03:22.082Z,92.10
2019-02-12T09:06:52.162Z,91.50
2019-02-12T09:10:24.226Z,91.70
2019-02-12T09:13:24.218Z,91.50
2019-02-12T09:16:30.839Z,90.90
2019-02-12T09:19:36.322Z,90.90
2019-02-12T09:22:58.635Z,91.10
2019-02-12T09:26:11.001Z,90.60
2019-02-12T09:29:19.722Z,90.70
2019-02-12T09:32:39.267Z,90.20
2019-02-12T09:35:44.343Z,90.40
2019-02-12T09:38:55.962Z,90.70
2019-02-12T09:41:59.685Z,90.40
2019-02-12T09:45:07.364Z,90.40
2019-02-12T09:48:01.794Z,90.70
2019-02-12T09:50:57.490Z,90.20
2019-02-12T09:54:08.665Z,90.70
2019-02-12T09:57:17.832Z,90.80
2019-02-12T10:00:12.747Z,89.20
2019-02-12T10:03:07.112Z,90.40
2019-02-12T10:05:58.848Z,90.80
2019-02-12T10:09:12.488Z,90.10
2019-02-12T10:12:20.426Z,89.20
2019-02-12T10:15:33.687Z,89.30
2019-02-12T10:18:51.858Z,89.20
2019-02-12T10:21:58.945Z,88.70
2019-02-12T10:24:53.687Z,89.50
2019-02-12T10:28:19.196Z,89.60
2019-02-12T10:31:49.073Z,90.10
2019-02-12T10:34:20.187Z,90.00
2019-02-12T10:36:51.909Z,87.50
2019-02-12T10:39:22.315Z,88.60
2019-02-12T10:41:53.151Z,89.30
2019-02-12T10:44:23.786Z,87.80
2019-02-12T10:46:54.947Z,87.70
2019-02-12T10:49:26.123Z,87.70
2019-02-12T10:51:56.635Z,87.70
2019-02-12T10:54:28.350Z,87.30
2019-02-12T10:56:58.998Z,89.10
2019-02-12T10:59:30.167Z,86.90
2019-02-12T11:02:00.963Z,87.70
2019-02-12T11:04:31.707Z,86.40
2019-02-12T11:07:02.899Z,86.90
2019-02-12T11:09:34.094Z,86.70
2019-02-12T11:12:04.804Z,87.50
2019-02-12T11:14:35.384Z,86.90
2019-02-12T11:17:06.275Z,85.40
2019-02-12T11:19:37.070Z,86.20
2019-02-12T11:22:08.030Z,85.80
2019-02-12T11:24:39.018Z,87.50
2019-02-12T11:27:10.156Z,84.90
2019-02-12T11:29:41.126Z,83.90
2019-02-12T11:32:11.842Z,85.60
2019-02-12T11:34:43.598Z,85.60
2019-02-12T11:37:14.486Z,83.10
2019-02-12T11:39:45.076Z,81.70
2019-02-12T11:42:16.031Z,78.60
2019-02-12T11:44:46.662Z,76.10
2019-02-12T11:47:17.490Z,74.40
2019-02-12T11:49:49.233Z,70.50
2019-02-12T11:52:20.135Z,69.60
2019-02-12T11:54:50.787Z,67.80
2019-02-12T11:57:21.533Z,63.10
2019-02-12T11:59:52.703Z,61.80
2019-02-12T12:02:26.043Z,59.30
2019-02-12T12:04:56.824Z,58.90
2019-02-12T12:07:28.920Z,56.00
2019-02-12T12:09:59.506Z,56.00
2019-02-12T12:12:30.387Z,55.30
2019-02-12T12:15:01.059Z,55.50
2019-02-12T12:17:31.816Z,53.10
2019-02-12T12:20:02.660Z,55.10
2019-02-12T12:22:33.814Z,52.80
2019-02-12T12:25:04.670Z,54.60
2019-02-12T12:27:35.525Z,52.70
2019-02-12T12:30:06.647Z,53.60
2019-02-12T12:32:38.712Z,51.60
2019-02-12T12:35:09.835Z,52.30
2019-02-12T12:37:40.757Z,52.80
2019-02-12T12:40:11.722Z,52.80
2019-02-12T12:42:42.374Z,53.30
2019-02-12T12:45:13.513Z,54.00
2019-02-12T12:47:44.678Z,54.40
2019-02-12T12:50:15.590Z,54.40
2019-02-12T12:52:47.252Z,53.90
2019-02-12T12:55:17.843Z,55.10
2019-02-12T12:57:48.962Z,54.60
2019-02-12T13:00:19.777Z,54.60
2019-02-12T13:02:50.514Z,55.30
2019-02-12T13:05:21.735Z,55.20
2019-02-12T13:07:52.779Z,55.10
2019-02-12T13:10:23.753Z,55.10
2019-02-12T13:12:54.445Z,55.30
2019-02-12T13:15:25.576Z,56.10
2019-02-12T13:17:56.371Z,55.60
2019-02-12T13:20:27.061Z,56.40
2019-02-12T13:22:58.050Z,56.90
2019-02-12T13:25:28.670Z,57.50
2019-02-12T13:27:59.094Z,57.60
2019-02-12T13:30:30.785Z,57.60
2019-02-12T13:33:01.853Z,59.00
2019-02-12T13:35:32.952Z,58.30
2019-02-12T13:38:03.847Z,59.10
2019-02-12T13:40:34.686Z,59.70
2019-02-12T13:43:05.318Z,59.70
2019-02-12T13:45:36.850Z,59.40
2019-02-12T13:48:07.855Z,59.50
2019-02-12T13:50:38.471Z,59.00
2019-02-12T13:53:09.538Z,60.50
2019-02-12T13:55:40.405Z,59.60
2019-02-12T13:58:11.136Z,60.40
2019-02-12T14:00:42.070Z,60.20
2019-02-12T14:03:12.722Z,61.00
2019-02-12T14:05:45.018Z,61.60
2019-02-12T14:08:15.722Z,61.80
2019-02-12T14:10:46.585Z,61.00
2019-02-12T14:13:17.338Z,60.70
2019-02-12T14:15:48.300Z,61.70
2019-02-12T14:18:19.099Z,62.30
2019-02-12T14:20:50.231Z,61.50
2019-02-12T14:23:22.151Z,61.70
2019-02-12T14:25:52.819Z,62.60
2019-02-12T14:28:23.650Z,63.10
2019-02-12T14:30:54.507Z,62.50
2019-02-12T14:33:25.422Z,62.20
2019-02-12T14:35:56.187Z,61.90
2019-02-12T14:38:26.689Z,62.40
2019-02-12T14:40:57.298Z,62.40
2019-02-12T14:43:28.571Z,63.50
2019-02-12T14:45:59.339Z,63.10
2019-02-12T14:48:29.948Z,63.20
2019-02-12T14:51:00.741Z,64.00
2019-02-12T14:53:31.783Z,63.60
2019-02-12T14:56:10.949Z,64.30
2019-02-12T14:58:34.942Z,64.70
2019-02-12T15:01:07.077Z,64.60
2019-02-12T15:03:37.730Z,64.70
2019-02-12T15:06:08.215Z,64.90
2019-02-12T15:08:39.864Z,65.30
2019-02-12T15:11:10.772Z,66.20
2019-02-12T15:13:41.498Z,66.10
2019-02-12T15:16:12.810Z,67.20
2019-02-12T15:18:43.568Z,68.10
2019-02-12T15:21:14.397Z,66.80
2019-02-12T15:23:45.255Z,68.60
2019-02-12T15:26:16.297Z,68.90
2019-02-12T15:28:47.227Z,67.70
2019-02-12T15:31:18.011Z,68.50
2019-02-12T15:33:48.725Z,68.90
2019-02-12T15:36:19.332Z,68.50
2019-02-12T15:38:50.330Z,69.50
2019-02-12T15:41:20.966Z,69.60
2019-02-12T15:43:51.680Z,69.80
2019-02-12T15:46:23.380Z,70.20
2019-02-12T15:48:54.435Z,69.50
2019-02-12T15:51:25.378Z,69.90
2019-02-12T15:53:56.135Z,69.90
2019-02-12T15:56:26.814Z,70.00
2019-02-12T15:58:57.383Z,70.30
2019-02-12T16:01:28.371Z,70.80
2019-02-12T16:04:00.203Z,70.70
2019-02-12T16:06:32.334Z,71.20
2019-02-12T16:09:03.379Z,70.60
2019-02-12T16:11:34.949Z,70.50
2019-02-12T16:14:09.143Z,70.80
2019-02-12T16:16:39.779Z,71.40
2019-02-12T16:19:10.631Z,71.20
2019-02-12T16:21:41.238Z,71.20
2019-02-12T16:24:12.050Z,71.30
2019-02-12T16:26:42.742Z,71.80
2019-02-12T16:29:13.245Z,71.40
2019-02-12T16:31:43.926Z,71.60
2019-02-12T16:34:14.522Z,71.80
2019-02-12T16:36:46.930Z,71.70
2019-02-12T16:39:17.622Z,71.50
2019-02-12T16:41:48.466Z,72.20
2019-02-12T16:44:19.362Z,72.50
2019-02-12T16:46:50.294Z,72.50
2019-02-12T16:49:21.333Z,72.00
2019-02-12T16:51:52.151Z,71.70
2019-02-12T16:54:23.054Z,71.70
2019-02-12T16:56:53.635Z,71.50
2019-02-12T16:59:25.040Z,71.80
2019-02-12T17:01:55.914Z,72.50
2019-02-12T17:04:28.118Z,72.40
2019-02-12T17:06:58.747Z,71.80
2019-02-12T17:09:29.997Z,72.40
2019-02-12T17:12:06.471Z,72.00
2019-02-12T17:14:37.558Z,72.30
2019-02-12T17:17:08.416Z,72.70
2019-02-12T17:19:40.952Z,72.70
2019-02-12T17:22:11.796Z,73.50
2019-02-12T17:24:42.843Z,73.60
2019-02-12T17:27:13.736Z,72.90
2019-02-12T17:29:44.455Z,72.70
2019-02-12T17:32:15.324Z,72.90
2019-02-12T17:34:45.938Z,73.10
2019-02-12T17:37:17.043Z,73.40
2019-02-12T17:39:51.551Z,73.50
2019-02-12T17:42:22.515Z,73.60
2019-02-12T17:44:53.556Z,73.90
2019-02-12T17:47:27.760Z,73.90
2019-02-12T17:49:58.815Z,74.50
2019-02-12T17:52:29.480Z,74.40
2019-02-12T17:55:01.612Z,74.20
2019-02-12T17:57:33.505Z,74.40
2019-02-12T18:00:06.418Z,74.10
2019-02-12T18:02:38.943Z,74.60
2019-02-12T18:05:09.547Z,74.00
2019-02-12T18:07:40.317Z,73.80
2019-02-12T18:10:11.110Z,74.00
2019-02-12T18:12:41.797Z,74.60
2019-02-12T18:15:12.792Z,74.10
2019-02-12T18:17:43.516Z,74.00
2019-02-12T18:20:14.455Z,74.70
2019-02-12T18:22:45.157Z,73.90
2019-02-12T18:25:15.690Z,73.70
2019-02-12T18:27:46.363Z,73.70
2019-02-12T18:30:17.152Z,74.10
2019-02-12T18:32:47.933Z,73.80
2019-02-12T18:35:18.887Z,74.10
2019-02-12T18:37:49.750Z,74.40
2019-02-12T18:40:23.419Z,75.10
2019-02-12T18:42:54.562Z,73.50
2019-02-12T18:45:26.097Z,74.30
2019-02-12T18:47:58.783Z,73.60
2019-02-12T18:50:29.550Z,73.60
2019-02-12T18:53:00.192Z,73.40
2019-02-12T18:55:30.991Z,73.80
2019-02-12T18:58:01.933Z,73.90
2019-02-12T19:00:33.105Z,74.50
2019-02-12T19:03:04.582Z,74.80
2019-02-12T19:05:35.582Z,74.20
2019-02-12T19:08:06.265Z,74.00
2019-02-12T19:10:37.078Z,75.00
2019-02-12T19:13:09.550Z,74.80
2019-02-12T19:15:40.378Z,75.90
2019-02-12T19:18:14.998Z,74.80
2019-02-12T19:20:45.690Z,74.00
2019-02-12T19:23:17.319Z,74.40
2019-02-12T19:25:48.082Z,74.70
2019-02-12T19:28:19.070Z,73.90
2019-02-12T19:30:49.770Z,74.20
2019-02-12T19:33:20.336Z,73.60
2019-02-12T19:35:51.032Z,74.00
2019-02-12T19:38:21.912Z,74.70
2019-02-12T19:40:52.714Z,74.80
2019-02-12T19:43:23.467Z,74.70
2019-02-12T19:45:55.126Z,74.20
2019-02-12T19:48:25.766Z,74.40
2019-02-12T19:50:56.347Z,75.10
2019-02-12T19:53:27.293Z,75.60
2019-02-12T19:55:58.313Z,74.80
2019-02-12T19:58:29.522Z,74.80
2019-02-12T20:01:00.411Z,75.00
2019-02-12T20:03:33.018Z,74.60
2019-02-12T20:06:04.802Z,75.10
2019-02-12T20:08:35.628Z,75.10
2019-02-12T20:11:06.428Z,75.10
2019-02-12T20:13:38.437Z,75.70
2019-02-12T20:16:09.219Z,75.30
2019-02-12T20:18:39.894Z,75.80
2019-02-12T20:21:10.741Z,75.90
2019-02-12T20:23:41.573Z,76.70
2019-02-12T20:26:12.354Z,76.30
2019-02-12T20:28:43.174Z,77.00
2019-02-12T20:31:13.654Z,77.20
2019-02-12T20:33:44.581Z,76.80
2019-02-12T20:36:17.620Z,76.90
2019-02-12T20:38:48.340Z,77.80
2019-02-12T20:41:19.051Z,77.70
2019-02-12T20:43:49.581Z,78.00
2019-02-12T20:46:20.461Z,79.00
2019-02-12T20:48:50.906Z,78.70
2019-02-12T20:51:21.895Z,79.00
2019-02-12T20:53:52.670Z,79.00
2019-02-12T20:56:23.276Z,79.40
2019-02-12T20:58:54.275Z,79.80
2019-02-12T21:01:25.250Z,80.30
2019-02-12T21:03:56.442Z,80.90
2019-02-12T21:06:27.469Z,81.00
2019-02-12T21:08:58.202Z,81.60
2019-02-12T21:11:28.931Z,82.20
2019-02-12T21:14:00.112Z,82.90
2019-02-12T21:16:30.679Z,83.90
2019-02-12T21:19:01.452Z,85.00
2019-02-12T21:21:33.427Z,86.40
2019-02-12T21:24:04.482Z,87.40
2019-02-12T21:26:35.347Z,88.70
2019-02-12T21:29:06.310Z,90.40
2019-02-12T21:31:37.088Z,90.50
2019-02-12T21:34:07.744Z,91.00
2019-02-12T21:36:38.682Z,92.00
2019-02-12T21:39:10.626Z,92.70
2019-02-12T21:41:41.524Z,92.90
2019-02-12T21:44:12.738Z,93.30
2019-02-12T21:46:44.651Z,94.20
2019-02-12T21:49:15.574Z,95.30
2019-02-12T21:51:46.311Z,95.90
2019-02-12T21:54:17.748Z,96.70
2019-02-12T21:56:48.902Z,97.30
2019-02-12T21:59:19.799Z,97.10
2019-02-12T22:01:51.634Z,98.10
2019-02-12T22:04:22.651Z,98.30
2019-02-12T22:06:53.466Z,98.70
2019-02-12T22:09:26.198Z,98.30
2019-02-12T22:11:57.452Z,99.30
2019-02-12T22:14:28.272Z,98.90
2019-02-12T22:16:59.399Z,99.80
2019-02-12T22:19:30.210Z,99.40
2019-02-12T22:22:01.346Z,99.90
2019-02-12T22:24:32.103Z,99.90
2019-02-12T22:27:02.951Z,99.90
2019-02-12T22:29:35.600Z,99.90
2019-02-12T22:32:06.835Z,99.90
2019-02-12T22:34:37.614Z,99.90
2019-02-12T22:37:09.384Z,99.90
2019-02-12T22:39:41.463Z,99.90
2019-02-12T22:42:12.185Z,99.90
2019-02-12T22:44:43.218Z,99.90
2019-02-12T22:47:13.982Z,99.90
2019-02-12T22:49:44.780Z,99.90
2019-02-12T22:52:15.323Z,99.90
2019-02-12T22:54:47.686Z,99.90
2019-02-12T22:57:21.618Z,99.90
2019-02-12T22:59:52.318Z,99.90
2019-02-12T23:02:23.154Z,99.90
2019-02-12T23:04:54.267Z,99.90
2019-02-12T23:07:25.058Z,99.90
2019-02-12T23:09:56.184Z,99.90
2019-02-12T23:12:27.348Z,99.90
2019-02-12T23:14:58.144Z,99.90
2019-02-12T23:17:28.985Z,99.90
2019-02-12T23:19:59.744Z,99.90
2019-02-12T23:22:30.982Z,99.90
2019-02-12T23:25:01.588Z,99.90
2019-02-12T23:27:34.059Z,99.90
2019-02-12T23:30:04.928Z,99.90
2019-02-12T23:32:37.623Z,99.90
2019-02-12T23:35:08.438Z,99.90
2019-02-12T23:37:39.474Z,99.90
2019-02-12T23:40:10.746Z,99.90
2019-02-12T23:42:43.304Z,99.90
2019-02-12T23:45:14.258Z,99.90
2019-02-12T23:47:45.171Z,99.90
2019-02-12T23:50:15.975Z,99.90
2019-02-12T23:52:46.766Z,99.90
2019-02-12T23:55:17.426Z,99.90
2019-02-12T23:57:48.246Z,99.90
